Time;durP1;ratioP1;P1;durP2;ratioP2;P2;SDS_P1;SDS_P2;PMS_P1;PMS_P2;Temp;Humidity;BMP_temperature;BMP_pressure;BME280_temperature;BME280_humidity;BME280_pressure;Samples;Min_cycle;Max_cycle;Signal;HPM_P1;HPM_P2
2021/01/01 00:01:26;;;;;;;58.72;40.95;;;4.90;90.90;;;;;;5037422;28;20033;-57
2021/01/01 00:03:51;;;;;;;44.60;37.90;;;4.90;90.90;;;;;;5024979;28;20056;-57
2021/01/01 00:06:17;;;;;;;50.70;40.63;;;4.90;90.80;;;;;;5020889;28;20060;-58
2021/01/01 00:08:42;;;;;;;53.40;42.80;;;4.90;90.80;;;;;;5042602;28;20507;-57
2021/01/01 00:11:08;;;;;;;57.28;44.85;;;4.90;90.80;;;;;;5037422;28;20047;-57
2021/01/01 00:13:33;;;;;;;55.08;42.65;;;4.90;90.80;;;;;;5023221;28;20107;-56
2021/01/01 00:15:59;;;;;;;55.28;45.10;;;4.90;90.80;;;;;;5037769;28;20029;-58
2021/01/01 00:18:24;;;;;;;52.35;42.25;;;4.90;90.80;;;;;;5041621;28;20436;-57
2021/01/01 00:20:50;;;;;;;52.22;42.08;;;4.90;90.80;;;;;;5037520;28;20025;-58
2021/01/01 00:23:15;;;;;;;51.28;41.72;;;4.90;90.80;;;;;;5042912;28;20048;-58
2021/01/01 00:25:41;;;;;;;54.00;42.47;;;4.90;90.90;;;;;;5038790;28;20026;-56
2021/01/01 00:28:06;;;;;;;49.38;39.47;;;4.90;90.90;;;;;;5025047;28;20500;-57
2021/01/01 00:30:32;;;;;;;59.40;45.47;;;4.90;90.80;;;;;;5041736;28;20078;-57
2021/01/01 00:32:57;;;;;;;53.65;43.22;;;4.90;90.80;;;;;;5043222;28;20049;-56
2021/01/01 00:35:23;;;;;;;57.10;46.35;;;4.90;90.80;;;;;;5032703;28;20029;-57
2021/01/01 00:37:48;;;;;;;53.13;42.80;;;4.90;90.80;;;;;;5035634;28;20029;-57
2021/01/01 00:40:14;;;;;;;51.97;41.97;;;4.90;90.80;;;;;;5032048;28;20033;-57
2021/01/01 00:42:39;;;;;;;50.72;39.95;;;4.90;90.80;;;;;;5034604;28;20033;-57
2021/01/01 00:45:05;;;;;;;50.83;40.88;;;4.90;90.80;;;;;;5032928;28;20080;-56
2021/01/01 00:47:31;;;;;;;55.08;44.70;;;4.90;90.80;;;;;;5036111;28;20112;-58
2021/01/01 00:49:56;;;;;;;54.88;44.40;;;4.90;90.80;;;;;;5032761;28;20163;-56
2021/01/01 00:52:22;;;;;;;54.13;44.47;;;4.90;90.90;;;;;;5034986;28;20033;-56
2021/01/01 00:54:47;;;;;;;52.95;42.83;;;4.90;90.90;;;;;;5015486;28;20499;-57
2021/01/01 00:57:13;;;;;;;56.05;46.20;;;4.90;90.90;;;;;;5036951;28;20029;-58
2021/01/01 00:59:39;;;;;;;59.08;47.42;;;4.90;90.90;;;;;;5033239;28;20040;-56
2021/01/01 01:02:04;;;;;;;53.15;44.25;;;4.90;90.90;;;;;;5019102;28;20465;-58
2021/01/01 01:04:30;;;;;;;59.50;47.33;;;4.90;90.90;;;;;;5014189;28;20057;-57
2021/01/01 01:06:55;;;;;;;58.50;44.45;;;4.90;90.90;;;;;;5037406;28;20092;-58
2021/01/01 01:09:21;;;;;;;60.22;46.03;;;4.90;90.90;;;;;;5016075;28;20112;-57
2021/01/01 01:11:46;;;;;;;59.33;46.05;;;4.90;90.90;;;;;;5020181;28;20143;-57
2021/01/01 01:14:12;;;;;;;52.97;45.10;;;4.80;90.90;;;;;;5033480;28;20021;-57
2021/01/01 01:16:37;;;;;;;57.50;46.50;;;4.90;90.90;;;;;;5018516;28;20037;-57
2021/01/01 01:19:03;;;;;;;59.53;48.97;;;4.90;91.20;;;;;;5018984;28;20600;-58
2021/01/01 01:21:28;;;;;;;60.65;47.45;;;4.90;91.00;;;;;;5040608;28;20025;-57
2021/01/01 01:23:54;;;;;;;62.40;48.38;;;4.90;91.00;;;;;;5035437;28;20021;-57
2021/01/01 01:26:20;;;;;;;58.25;47.53;;;4.90;91.00;;;;;;5023173;28;20230;-57
2021/01/01 01:28:46;;;;;;;57.20;45.33;;;4.90;91.00;;;;;;5033708;28;20055;-56
2021/01/01 01:31:11;;;;;;;65.85;50.17;;;4.90;91.00;;;;;;5028989;28;20029;-58
2021/01/01 01:33:37;;;;;;;61.58;49.65;;;4.90;91.00;;;;;;5020952;28;20064;-57
2021/01/01 01:36:03;;;;;;;62.65;49.13;;;4.90;91.00;;;;;;5020510;28;20268;-57
2021/01/01 01:38:28;;;;;;;60.95;49.28;;;4.90;91.00;;;;;;5016006;28;20113;-58
2021/01/01 01:40:54;;;;;;;60.70;50.53;;;4.90;91.00;;;;;;5019861;28;20037;-57
2021/01/01 01:43:20;;;;;;;65.18;51.70;;;4.90;91.10;;;;;;5023485;28;20017;-58
2021/01/01 01:45:46;;;;;;;58.92;48.05;;;4.90;91.10;;;;;;5031520;28;20025;-57
2021/01/01 01:48:12;;;;;;;55.72;45.20;;;4.80;91.10;;;;;;5037505;28;20025;-59
2021/01/01 01:50:37;;;;;;;59.58;48.80;;;4.90;91.20;;;;;;5024130;28;20044;-57
2021/01/01 01:53:03;;;;;;;56.72;44.72;;;4.90;91.20;;;;;;5040075;28;20037;-57
2021/01/01 01:55:29;;;;;;;50.45;42.75;;;4.90;91.20;;;;;;5031049;28;20315;-57
2021/01/01 01:57:54;;;;;;;57.63;46.00;;;4.90;91.20;;;;;;5020052;28;20037;-56
2021/01/01 02:03:04;;;;;;;59.45;46.72;;;4.80;91.10;;;;;;5024256;28;20056;-57
2021/01/01 02:05:30;;;;;;;57.30;46.92;;;4.90;91.20;;;;;;5039657;28;20060;-56
2021/01/01 02:07:55;;;;;;;56.03;44.53;;;4.90;91.30;;;;;;5039020;28;20021;-56
2021/01/01 02:10:21;;;;;;;54.72;43.33;;;4.90;91.30;;;;;;5026307;28;20523;-56
2021/01/01 02:12:47;;;;;;;55.70;44.20;;;4.90;91.30;;;;;;5021683;28;20116;-58
2021/01/01 02:15:12;;;;;;;58.30;47.13;;;4.90;91.30;;;;;;5042632;28;20028;-58
2021/01/01 02:17:38;;;;;;;57.70;46.97;;;4.90;91.30;;;;;;5025297;28;20041;-57
2021/01/01 02:20:10;;;;;;;56.28;46.70;;;4.90;91.30;;;;;;5033262;28;20025;-58
2021/01/01 02:22:39;;;;;;;57.58;44.33;;;4.90;91.20;;;;;;5024947;28;20025;-59
2021/01/01 02:25:06;;;;;;;55.97;44.85;;;4.90;91.20;;;;;;5042283;28;20060;-58
2021/01/01 02:27:31;;;;;;;55.45;45.92;;;4.90;91.20;;;;;;5026149;28;20032;-58
2021/01/01 02:29:57;;;;;;;55.55;44.75;;;4.90;91.20;;;;;;5039667;28;20041;-58
2021/01/01 02:32:22;;;;;;;53.20;42.20;;;4.90;91.20;;;;;;5046332;28;20028;-57
2021/01/01 02:34:48;;;;;;;55.28;46.85;;;4.80;91.20;;;;;;5040329;28;20057;-57
2021/01/01 02:37:13;;;;;;;51.45;42.85;;;4.90;91.20;;;;;;5032797;28;20040;-57
2021/01/01 02:39:39;;;;;;;53.60;44.10;;;4.90;91.10;;;;;;5042985;28;20473;-58
2021/01/01 02:42:05;;;;;;;56.33;45.25;;;4.90;91.10;;;;;;5027656;28;20068;-57
2021/01/01 02:44:30;;;;;;;53.33;43.88;;;4.90;91.10;;;;;;5038617;28;20025;-57
2021/01/01 02:47:02;;;;;;;57.85;47.60;;;4.90;91.10;;;;;;5025512;28;20033;-57
2021/01/01 02:49:27;;;;;;;55.88;44.92;;;4.90;91.10;;;;;;5040256;28;20132;-57
2021/01/01 02:51:53;;;;;;;53.30;43.17;;;4.90;91.10;;;;;;5017781;28;20116;-58
2021/01/01 02:54:19;;;;;;;54.75;45.35;;;4.90;91.10;;;;;;5022151;28;20033;-58
2021/01/01 02:56:44;;;;;;;49.72;42.05;;;4.90;91.20;;;;;;5042522;28;20029;-58
2021/01/01 02:59:10;;;;;;;53.38;43.83;;;4.90;91.20;;;;;;5039613;28;20103;-59
2021/01/01 03:01:35;;;;;;;56.50;44.90;;;4.80;91.10;;;;;;5025502;28;20235;-57
2021/01/01 03:04:01;;;;;;;52.90;42.72;;;4.90;91.10;;;;;;5042475;28;20052;-58
2021/01/01 03:06:26;;;;;;;55.97;43.67;;;4.90;91.40;;;;;;5047805;28;20626;-58
2021/01/01 03:08:52;;;;;;;53.10;44.15;;;4.90;91.10;;;;;;5037096;28;20099;-57
2021/01/01 03:11:19;;;;;;;55.83;44.65;;;4.90;91.10;;;;;;5044125;28;20053;-57
2021/01/01 03:13:44;;;;;;;56.78;45.67;;;4.90;91.00;;;;;;5041330;28;20025;-57
2021/01/01 03:16:10;;;;;;;50.88;41.88;;;4.90;91.10;;;;;;5044149;28;20033;-58
2021/01/01 03:18:35;;;;;;;52.75;41.78;;;4.90;91.10;;;;;;5027172;28;20041;-56
2021/01/01 03:21:01;;;;;;;51.80;42.33;;;4.90;91.00;;;;;;5011382;28;20020;-58
2021/01/01 03:23:26;;;;;;;50.88;42.45;;;4.90;91.00;;;;;;5038371;28;20704;-58
2021/01/01 03:25:52;;;;;;;52.83;43.08;;;4.90;91.10;;;;;;5042603;28;20484;-57
2021/01/01 03:28:17;;;;;;;54.40;41.90;;;4.80;91.00;;;;;;5040569;28;20107;-58
2021/01/01 03:30:43;;;;;;;56.35;44.33;;;4.90;91.10;;;;;;5041094;28;20055;-58
2021/01/01 03:33:08;;;;;;;58.00;42.95;;;4.90;91.30;;;;;;5040203;28;20037;-58
2021/01/01 03:35:34;;;;;;;53.05;42.65;;;4.90;91.00;;;;;;5023938;28;20376;-57
2021/01/01 03:38:00;;;;;;;49.38;39.35;;;4.90;91.00;;;;;;5042971;28;20025;-58
2021/01/01 03:40:26;;;;;;;51.03;40.88;;;4.90;91.00;;;;;;5047785;28;20542;-58
2021/01/01 03:42:51;;;;;;;54.05;42.58;;;4.90;91.00;;;;;;5039543;28;20385;-57
2021/01/01 03:45:17;;;;;;;51.00;41.25;;;4.90;91.00;;;;;;5022511;28;20488;-58
2021/01/01 03:47:42;;;;;;;52.90;43.35;;;4.90;91.00;;;;;;5038622;28;20033;-56
2021/01/01 03:50:08;;;;;;;54.83;43.63;;;4.90;91.00;;;;;;5040970;28;20036;-57
2021/01/01 03:52:34;;;;;;;50.35;40.20;;;4.90;91.00;;;;;;5040128;28;20024;-58
2021/01/01 03:54:59;;;;;;;53.28;42.95;;;4.90;91.10;;;;;;5040784;28;20361;-57
2021/01/01 03:57:25;;;;;;;51.10;42.65;;;5.20;91.20;;;;;;5039095;28;20045;-58
2021/01/01 03:59:50;;;;;;;52.80;42.63;;;4.90;91.40;;;;;;5041343;28;20029;-56
2021/01/01 04:02:16;;;;;;;53.33;42.65;;;5.00;91.20;;;;;;5040444;28;20527;-57
2021/01/01 04:04:41;;;;;;;49.85;41.97;;;4.90;91.20;;;;;;5006834;28;20021;-57
2021/01/01 04:07:07;;;;;;;47.05;39.00;;;4.90;91.20;;;;;;5022109;28;20477;-58
2021/01/01 04:09:32;;;;;;;51.83;41.47;;;4.90;91.20;;;;;;5022179;28;20040;-58
2021/01/01 04:11:58;;;;;;;49.25;40.65;;;4.90;91.20;;;;;;5040720;28;20109;-58
2021/01/01 04:14:23;;;;;;;48.88;40.67;;;4.90;91.10;;;;;;5040372;28;20040;-56
2021/01/01 04:16:49;;;;;;;47.13;39.65;;;4.90;91.10;;;;;;5040260;28;20025;-59
2021/01/01 04:19:15;;;;;;;46.88;40.22;;;4.90;91.10;;;;;;5028518;28;20058;-56
2021/01/01 04:21:47;;;;;;;48.40;38.85;;;4.90;91.20;;;;;;5037283;28;20037;-56
2021/01/01 04:24:14;;;;;;;44.15;38.20;;;4.90;91.20;;;;;;5022695;28;20116;-57
2021/01/01 04:26:39;;;;;;;47.83;39.83;;;4.90;91.20;;;;;;5021139;28;20473;-57
2021/01/01 04:29:05;;;;;;;49.30;38.35;;;4.90;91.10;;;;;;5040055;28;20025;-58
2021/01/01 04:31:35;;;;;;;50.55;41.13;;;4.90;91.10;;;;;;5038255;28;20036;-57
2021/01/01 04:34:02;;;;;;;52.05;41.08;;;4.90;91.20;;;;;;5040525;28;20067;-57
2021/01/01 04:36:27;;;;;;;47.53;40.55;;;4.90;91.10;;;;;;5037706;28;20091;-57
2021/01/01 04:38:53;;;;;;;45.15;38.03;;;4.90;91.10;;;;;;5026502;28;20025;-58
2021/01/01 04:41:19;;;;;;;45.15;38.17;;;4.90;91.20;;;;;;5037461;28;20030;-57
2021/01/01 04:43:45;;;;;;;48.33;41.53;;;4.90;91.20;;;;;;5014993;28;20099;-57
2021/01/01 04:46:10;;;;;;;48.53;38.17;;;4.90;91.20;;;;;;4990756;28;20048;-57
2021/01/01 04:48:36;;;;;;;45.90;36.97;;;4.90;91.20;;;;;;5033554;28;20425;-58
2021/01/01 04:51:01;;;;;;;45.97;37.58;;;4.90;91.20;;;;;;5019152;28;20048;-58
2021/01/01 04:53:27;;;;;;;43.55;36.95;;;4.90;91.20;;;;;;5021752;28;20041;-57
2021/01/01 04:55:53;;;;;;;43.83;37.15;;;4.90;91.30;;;;;;5037070;28;20052;-58
2021/01/01 04:58:19;;;;;;;45.65;37.67;;;4.90;91.30;;;;;;5037872;28;20477;-58
2021/01/01 05:00:45;;;;;;;45.25;39.00;;;4.90;91.20;;;;;;5019149;28;20022;-57
2021/01/01 05:03:10;;;;;;;43.08;36.25;;;4.90;91.30;;;;;;5039164;28;20028;-58
2021/01/01 05:05:36;;;;;;;44.25;35.80;;;4.90;91.30;;;;;;5039644;28;20029;-56
2021/01/01 05:08:01;;;;;;;40.90;34.60;;;4.90;91.40;;;;;;5046070;28;20028;-58
2021/01/01 05:10:27;;;;;;;45.33;37.53;;;4.90;91.40;;;;;;5017102;28;20036;-58
2021/01/01 05:12:52;;;;;;;42.92;33.97;;;4.90;91.40;;;;;;5043354;28;20487;-57
2021/01/01 05:15:34;;;;;;;42.58;35.13;;;4.90;91.30;;;;;;5035099;28;20072;-58
2021/01/01 05:17:59;;;;;;;43.10;35.17;;;4.90;91.30;;;;;;5026132;28;20430;-56
2021/01/01 05:20:28;;;;;;;46.33;36.65;;;4.90;91.30;;;;;;5048969;28;20096;-57
2021/01/01 05:23:03;;;;;;;41.97;35.08;;;4.90;91.30;;;;;;5045144;28;20575;-58
2021/01/01 05:25:28;;;;;;;41.35;34.63;;;4.90;91.30;;;;;;5015610;28;20029;-56
2021/01/01 05:27:58;;;;;;;40.42;34.53;;;4.90;91.30;;;;;;5025732;28;20124;-57
2021/01/01 05:30:31;;;;;;;41.42;35.13;;;4.90;91.30;;;;;;5026479;28;20024;-56
2021/01/01 05:32:56;;;;;;;40.72;34.80;;;4.90;91.30;;;;;;5025880;28;20098;-56
2021/01/01 05:35:28;;;;;;;42.85;35.05;;;4.90;91.40;;;;;;5043833;28;20033;-58
2021/01/01 05:37:54;;;;;;;38.83;33.60;;;4.90;91.40;;;;;;5039595;28;20032;-56
2021/01/01 05:40:30;;;;;;;39.35;33.35;;;4.90;91.30;;;;;;5017520;28;20021;-56
2021/01/01 05:42:56;;;;;;;;;;;4.90;91.40;;;;;;5016573;28;20152;-58
2021/01/01 05:45:21;;;;;;;;;;;4.90;91.40;;;;;;5030037;28;20377;-57
2021/01/01 05:48:06;;;;;;;41.50;34.15;;;4.90;91.30;;;;;;5023106;28;19909;-58
2021/01/01 05:50:32;;;;;;;40.78;34.08;;;4.90;91.30;;;;;;5011965;28;20056;-57
2021/01/01 05:53:16;;;;;;;40.60;33.45;;;4.80;91.30;;;;;;5044045;28;20104;-57
2021/01/01 05:55:42;;;;;;;37.60;32.92;;;4.90;91.30;;;;;;5039239;28;20029;-56
2021/01/01 05:58:26;;;;;;;41.33;32.83;;;4.90;91.70;;;;;;5045374;28;20477;-58
2021/01/01 06:00:54;;;;;;;39.83;32.60;;;4.90;91.40;;;;;;5041212;28;20029;-57
2021/01/01 06:03:23;;;;;;;40.25;34.25;;;4.90;91.40;;;;;;5046852;28;20028;-56
2021/01/01 06:05:55;;;;;;;40.63;33.35;;;4.90;91.40;;;;;;5024464;28;20072;-57
2021/01/01 06:08:27;;;;;;;41.90;33.88;;;4.90;91.40;;;;;;5051708;28;20116;-57
2021/01/01 06:10:55;;;;;;;35.00;29.88;;;4.90;91.40;;;;;;5036949;28;20027;-57
2021/01/01 06:13:21;;;;;;;39.85;32.78;;;4.90;91.40;;;;;;5036902;28;20029;-58
2021/01/01 06:15:57;;;;;;;37.78;31.83;;;4.90;91.40;;;;;;5031457;28;20442;-57
2021/01/01 06:18:32;;;;;;;37.42;31.25;;;4.90;91.40;;;;;;5050379;28;20040;-57
2021/01/01 06:21:01;;;;;;;;;;;4.90;91.40;;;;;;5045975;28;20055;-59
2021/01/01 06:23:30;;;;;;;40.42;32.88;;;4.90;91.40;;;;;;5032773;28;20308;-58
2021/01/01 06:25:59;;;;;;;40.22;32.03;;;4.90;91.30;;;;;;5046061;28;20103;-57
2021/01/01 06:28:26;;;;;;;40.10;32.33;;;4.90;91.40;;;;;;5051602;28;20075;-57
2021/01/01 06:30:53;;;;;;;41.58;31.88;;;4.90;91.50;;;;;;5025421;28;20029;-58
2021/01/01 06:33:19;;;;;;;38.13;32.83;;;4.90;91.40;;;;;;5044736;28;20043;-57
2021/01/01 06:35:44;;;;;;;39.80;32.55;;;4.90;91.40;;;;;;5024656;28;20041;-57
2021/01/01 06:38:10;;;;;;;36.25;30.80;;;4.90;91.50;;;;;;5036795;28;20491;-57
2021/01/01 06:40:36;;;;;;;34.83;29.70;;;4.80;91.40;;;;;;5041819;28;20028;-58
2021/01/01 06:43:08;;;;;;;36.35;30.85;;;4.80;91.50;;;;;;5037430;28;20416;-56
2021/01/01 06:45:43;;;;;;;35.42;30.50;;;4.90;91.50;;;;;;5041577;28;20380;-57
2021/01/01 06:48:20;;;;;;;35.92;30.83;;;4.80;91.50;;;;;;5044950;28;20029;-56
2021/01/01 06:50:49;;;;;;;35.40;31.30;;;4.90;91.60;;;;;;5050680;28;20029;-57
2021/01/01 06:53:16;;;;;;;37.45;31.30;;;4.90;91.60;;;;;;5037188;28;20043;-56
2021/01/01 06:55:42;;;;;;;35.22;29.00;;;4.90;91.80;;;;;;5053807;28;20029;-57
2021/01/01 06:58:09;;;;;;;36.72;30.40;;;4.80;91.50;;;;;;5044334;28;20375;-58
2021/01/01 07:00:49;;;;;;;33.95;29.50;;;4.90;91.50;;;;;;5038676;28;20033;-58
2021/01/01 07:03:28;;;;;;;36.53;29.88;;;4.80;91.50;;;;;;5041821;28;20068;-58
2021/01/01 07:05:54;;;;;;;37.17;31.30;;;4.90;91.60;;;;;;5036740;28;20018;-58
2021/01/01 07:08:41;;;;;;;34.17;29.13;;;4.90;91.60;;;;;;5049949;28;20388;-57
2021/01/01 07:11:10;;;;;;;37.55;31.55;;;4.90;91.60;;;;;;5043990;28;20021;-57
2021/01/01 07:14:10;;;;;;;34.58;28.33;;;4.80;91.60;;;;;;5048867;28;20090;-56
2021/01/01 07:16:40;;;;;;;31.92;27.15;;;4.90;91.60;;;;;;5044167;28;20035;-57
2021/01/01 07:19:06;;;;;;;35.55;29.58;;;4.80;91.60;;;;;;5030603;28;20108;-57
2021/01/01 07:21:32;;;;;;;34.22;28.38;;;4.80;91.60;;;;;;5031086;28;20040;-58
2021/01/01 07:23:57;;;;;;;35.97;29.90;;;4.80;91.60;;;;;;5050605;28;20025;-58
2021/01/01 07:26:30;;;;;;;36.50;29.83;;;4.90;91.70;;;;;;5036255;28;20037;-58
2021/01/01 07:28:57;;;;;;;36.38;29.58;;;4.80;91.90;;;;;;5043662;28;20024;-58
2021/01/01 07:31:23;;;;;;;35.40;29.23;;;4.80;91.60;;;;;;5049987;28;20111;-57
2021/01/01 07:33:49;;;;;;;33.13;29.50;;;4.90;91.60;;;;;;5050228;28;20084;-57
2021/01/01 07:36:14;;;;;;;36.20;29.45;;;4.80;91.60;;;;;;5038104;28;20026;-57
2021/01/01 07:38:41;;;;;;;35.60;29.27;;;4.80;91.50;;;;;;5042464;28;20041;-56
2021/01/01 07:41:07;;;;;;;31.92;27.88;;;4.80;91.60;;;;;;5039074;28;20032;-57
2021/01/01 07:43:32;;;;;;;32.20;27.08;;;4.80;91.50;;;;;;5027745;28;20029;-58
2021/01/01 07:46:02;;;;;;;34.38;29.90;;;4.80;91.50;;;;;;5050401;28;20369;-57
2021/01/01 07:48:27;;;;;;;34.67;28.58;;;4.80;91.50;;;;;;5043269;28;20025;-58
2021/01/01 07:51:09;;;;;;;35.05;29.35;;;4.90;91.80;;;;;;5032954;28;20034;-58
2021/01/01 07:53:35;;;;;;;33.17;29.33;;;4.90;91.50;;;;;;5045594;28;20092;-57
2021/01/01 07:56:05;;;;;;;34.95;28.15;;;4.80;91.50;;;;;;5002653;28;20488;-57
2021/01/01 07:58:31;;;;;;;33.60;28.45;;;4.80;91.80;;;;;;5048571;28;20029;-57
2021/01/01 08:01:00;;;;;;;33.00;27.70;;;4.80;91.50;;;;;;5047282;28;20032;-57
2021/01/01 08:03:25;;;;;;;35.05;27.85;;;4.80;91.50;;;;;;5047267;28;20144;-57
2021/01/01 08:05:51;;;;;;;32.40;28.90;;;4.80;91.50;;;;;;5014413;28;20029;-58
2021/01/01 08:08:22;;;;;;;33.65;27.80;;;4.90;91.50;;;;;;5030873;28;20025;-58
2021/01/01 08:10:48;;;;;;;33.10;27.63;;;4.90;91.50;;;;;;5047486;28;20075;-57
2021/01/01 08:13:20;;;;;;;33.40;27.30;;;4.80;91.50;;;;;;5048629;28;20033;-57
2021/01/01 08:15:47;;;;;;;31.50;26.55;;;4.80;91.50;;;;;;5025553;28;20034;-57
2021/01/01 08:18:20;;;;;;;30.80;26.35;;;4.90;91.50;;;;;;5028219;28;20029;-57
2021/01/01 08:20:46;;;;;;;29.90;25.60;;;4.90;91.60;;;;;;5041299;28;20032;-57
2021/01/01 08:23:16;;;;;;;31.90;27.38;;;4.90;91.50;;;;;;5006107;28;20113;-58
2021/01/01 08:25:42;;;;;;;34.97;27.70;;;4.90;91.60;;;;;;5024307;28;20057;-58
2021/01/01 08:28:07;;;;;;;32.55;26.63;;;4.90;91.60;;;;;;5027775;28;20075;-58
2021/01/01 08:30:35;;;;;;;32.88;27.73;;;4.90;91.60;;;;;;5024121;28;20056;-57
2021/01/01 08:33:00;;;;;;;29.73;24.67;;;4.90;91.60;;;;;;5040154;28;20037;-56
2021/01/01 08:35:26;;;;;;;31.58;26.25;;;4.90;91.60;;;;;;5024581;28;20036;-58
2021/01/01 08:37:52;;;;;;;29.70;25.33;;;4.90;91.70;;;;;;5020380;28;20028;-57
2021/01/01 08:40:17;;;;;;;29.35;25.45;;;4.90;91.70;;;;;;5047061;28;20122;-57
2021/01/01 08:42:43;;;;;;;28.08;24.00;;;4.90;91.80;;;;;;5045778;28;20032;-57
2021/01/01 08:45:10;;;;;;;29.70;25.63;;;4.90;91.80;;;;;;5016216;28;20025;-58
2021/01/01 08:47:39;;;;;;;29.60;26.30;;;4.90;91.90;;;;;;5037180;28;20031;-56
2021/01/01 08:50:16;;;;;;;28.98;24.13;;;4.90;91.90;;;;;;5015339;28;20033;-58
2021/01/01 08:52:42;;;;;;;27.60;24.60;;;4.90;92.00;;;;;;5018419;28;20029;-56
2021/01/01 08:55:08;;;;;;;28.58;24.23;;;4.90;92.00;;;;;;5017233;28;20377;-58
2021/01/01 08:57:33;;;;;;;28.15;24.48;;;4.90;92.00;;;;;;5014940;28;20056;-58
2021/01/01 08:59:59;;;;;;;25.65;22.65;;;4.90;92.10;;;;;;5033886;28;20536;-57
2021/01/01 09:02:26;;;;;;;29.88;25.25;;;4.90;92.10;;;;;;5034402;28;20024;-57
2021/01/01 09:04:52;;;;;;;26.50;22.75;;;4.90;92.20;;;;;;5033270;28;20196;-57
2021/01/01 09:07:18;;;;;;;30.13;23.70;;;4.90;92.20;;;;;;5032834;28;20543;-58
2021/01/01 09:09:43;;;;;;;27.33;23.08;;;4.90;92.20;;;;;;5035353;28;20025;-57
2021/01/01 09:12:15;;;;;;;26.35;22.98;;;4.90;92.20;;;;;;5036014;28;20059;-57
2021/01/01 09:14:51;;;;;;;25.13;22.42;;;4.90;92.20;;;;;;5036524;28;20079;-57
2021/01/01 09:17:20;;;;;;;26.20;22.42;;;4.90;92.20;;;;;;5032547;28;20030;-57
2021/01/01 09:19:46;;;;;;;23.35;20.88;;;4.90;92.20;;;;;;5037884;28;20475;-58
2021/01/01 09:22:18;;;;;;;26.48;23.50;;;4.90;92.20;;;;;;5016141;28;20021;-57
2021/01/01 09:24:45;;;;;;;24.55;21.95;;;4.90;92.20;;;;;;5020842;28;20017;-56
2021/01/01 09:27:11;;;;;;;23.60;20.77;;;4.90;92.20;;;;;;5016331;28;20112;-57
2021/01/01 09:29:36;;;;;;;23.95;21.15;;;5.00;92.30;;;;;;5018613;28;20111;-58
2021/01/01 09:32:08;;;;;;;23.30;20.70;;;5.00;92.30;;;;;;5036609;28;20487;-58
2021/01/01 09:34:33;;;;;;;23.88;20.58;;;5.00;92.30;;;;;;5037927;28;20102;-56
2021/01/01 09:37:05;;;;;;;23.30;20.55;;;5.00;92.30;;;;;;5033510;28;20037;-58
2021/01/01 09:39:30;;;;;;;22.48;20.05;;;5.00;92.30;;;;;;5019438;28;20025;-57
2021/01/01 09:41:56;;;;;;;23.20;20.13;;;5.00;92.30;;;;;;5032868;28;20037;-57
2021/01/01 09:44:21;;;;;;;22.75;19.00;;;5.00;92.60;;;;;;5042321;28;20469;-57
2021/01/01 09:46:47;;;;;;;22.27;18.95;;;5.00;92.30;;;;;;5032785;28;20044;-57
2021/01/01 09:49:13;;;;;;;20.30;18.10;;;5.00;92.20;;;;;;5018279;28;20083;-57
2021/01/01 09:51:38;;;;;;;20.70;17.98;;;5.00;92.30;;;;;;5014996;28;20042;-58
2021/01/01 09:54:04;;;;;;;19.20;17.10;;;5.00;92.30;;;;;;5034471;28;20029;-57
2021/01/01 09:56:34;;;;;;;19.73;16.15;;;5.10;92.30;;;;;;5032181;28;20033;-57
2021/01/01 09:58:59;;;;;;;19.33;17.33;;;5.10;92.30;;;;;;5012559;28;20384;-56
2021/01/01 10:01:27;;;;;;;18.35;15.80;;;5.10;92.20;;;;;;5015036;28;20026;-58
2021/01/01 10:03:53;;;;;;;18.90;16.05;;;5.10;92.20;;;;;;5037789;28;20041;-57
2021/01/01 10:06:18;;;;;;;17.75;14.95;;;5.10;92.20;;;;;;5033121;28;20045;-56
2021/01/01 10:08:44;;;;;;;17.77;14.88;;;5.10;92.20;;;;;;5038275;28;20064;-57
2021/01/01 10:11:13;;;;;;;17.75;15.80;;;5.10;92.20;;;;;;5018990;28;20033;-57
2021/01/01 10:13:39;;;;;;;16.35;14.13;;;5.10;92.30;;;;;;5040271;28;20088;-58
2021/01/01 10:16:08;;;;;;;17.50;14.98;;;5.10;92.10;;;;;;5037136;28;20041;-58
2021/01/01 10:18:34;;;;;;;16.15;14.45;;;5.20;92.20;;;;;;5032098;28;20030;-57
2021/01/01 10:20:59;;;;;;;14.38;12.88;;;5.20;92.20;;;;;;5037597;28;20029;-57
2021/01/01 10:23:25;;;;;;;15.90;14.20;;;5.20;92.20;;;;;;5039850;28;20026;-58
2021/01/01 10:25:51;;;;;;;16.13;14.45;;;5.20;92.20;;;;;;5037467;28;20028;-56
2021/01/01 10:28:17;;;;;;;16.90;14.73;;;5.20;92.20;;;;;;5039275;28;20269;-56
2021/01/01 10:30:43;;;;;;;17.83;14.55;;;5.20;92.20;;;;;;5034088;28;20040;-58
2021/01/01 10:33:10;;;;;;;17.33;14.82;;;5.20;92.10;;;;;;5042037;28;20531;-59
2021/01/01 10:35:35;;;;;;;16.23;13.75;;;5.20;92.10;;;;;;5037850;28;20048;-58
2021/01/01 10:38:01;;;;;;;16.42;14.50;;;5.20;92.20;;;;;;5017671;28;20473;-57
2021/01/01 10:40:26;;;;;;;14.35;12.68;;;5.20;92.10;;;;;;5019760;28;20049;-57
2021/01/01 10:42:52;;;;;;;15.65;13.95;;;5.20;92.10;;;;;;5020441;28;20427;-57
2021/01/01 10:45:17;;;;;;;16.20;14.15;;;5.30;92.10;;;;;;5042814;28;20025;-56
2021/01/01 10:47:43;;;;;;;15.00;13.40;;;5.30;92.10;;;;;;5033483;28;20029;-57
2021/01/01 10:50:09;;;;;;;13.55;12.07;;;5.30;92.20;;;;;;5037506;28;20515;-57
2021/01/01 10:52:34;;;;;;;13.98;12.48;;;5.50;92.20;;;;;;5039022;28;20041;-57
2021/01/01 10:55:00;;;;;;;14.65;12.77;;;5.30;92.10;;;;;;5036250;28;20042;-58
2021/01/01 10:57:25;;;;;;;13.60;12.10;;;5.30;92.10;;;;;;5038271;28;20033;-57
2021/01/01 10:59:51;;;;;;;13.43;11.93;;;5.30;92.10;;;;;;5037004;28;20018;-58
2021/01/01 11:02:16;;;;;;;13.90;11.68;;;5.30;92.10;;;;;;5039329;28;20018;-57
2021/01/01 11:04:42;;;;;;;12.15;10.73;;;5.30;92.10;;;;;;5018479;28;20412;-57
2021/01/01 11:07:07;;;;;;;12.02;10.70;;;5.30;92.10;;;;;;5019953;28;20037;-58
2021/01/01 11:09:33;;;;;;;11.65;10.45;;;5.40;92.10;;;;;;5017418;28;20021;-57
2021/01/01 11:11:58;;;;;;;11.40;10.20;;;5.40;92.10;;;;;;5038907;28;20044;-58
2021/01/01 12:23:05;;;;;;;8.57;7.17;;;5.40;91.70;;;;;;5035746;28;20025;-56
2021/01/01 12:25:30;;;;;;;8.25;7.45;;;5.50;91.80;;;;;;5019407;28;20013;-56
2021/01/01 12:27:57;;;;;;;8.40;7.50;;;5.40;91.80;;;;;;5020496;28;20044;-59
2021/01/01 12:30:25;;;;;;;7.63;6.85;;;5.50;91.80;;;;;;5005826;28;20021;-58
2021/01/01 12:32:50;;;;;;;8.20;7.40;;;5.50;91.80;;;;;;5041799;28;20385;-57
2021/01/01 12:35:16;;;;;;;8.05;7.25;;;5.50;91.80;;;;;;5015339;28;20032;-56
2021/01/01 12:37:41;;;;;;;8.35;7.30;;;5.50;91.80;;;;;;5038110;28;20036;-58
2021/01/01 12:40:08;;;;;;;8.38;7.55;;;5.40;91.80;;;;;;5034306;28;20025;-59
2021/01/01 12:42:33;;;;;;;7.18;6.47;;;5.50;91.80;;;;;;5038032;28;20464;-57
2021/01/01 12:44:59;;;;;;;9.48;7.60;;;5.40;91.80;;;;;;5042747;28;20040;-58
2021/01/01 12:47:25;;;;;;;8.35;7.45;;;5.50;91.80;;;;;;5039793;28;20036;-57
2021/01/01 12:49:50;;;;;;;7.70;6.90;;;5.50;92.00;;;;;;5019790;28;20494;-57
2021/01/01 12:52:16;;;;;;;7.93;6.85;;;5.50;91.80;;;;;;5022815;28;20040;-57
2021/01/01 12:54:41;;;;;;;7.95;6.95;;;5.50;91.70;;;;;;5037538;28;20039;-58
2021/01/01 12:57:07;;;;;;;8.25;6.88;;;5.50;91.70;;;;;;5021913;28;20037;-58
2021/01/01 12:59:32;;;;;;;7.88;7.00;;;5.50;91.70;;;;;;5036094;28;20077;-58
2021/01/01 13:01:58;;;;;;;8.00;7.20;;;5.50;91.70;;;;;;5021983;28;20108;-57
2021/01/01 13:04:24;;;;;;;8.18;6.75;;;5.50;91.70;;;;;;5037251;28;20026;-56
2021/01/01 13:06:50;;;;;;;7.90;7.10;;;5.50;91.70;;;;;;5039348;28;20436;-57
2021/01/01 13:09:16;;;;;;;8.00;6.85;;;5.50;91.70;;;;;;5037049;28;20104;-58
2021/01/01 13:11:45;;;;;;;9.00;7.35;;;5.50;91.70;;;;;;5038122;28;20120;-57
2021/01/01 13:14:11;;;;;;;8.10;7.22;;;5.50;91.70;;;;;;5036050;28;20021;-58
2021/01/01 13:16:37;;;;;;;7.95;6.90;;;5.50;91.60;;;;;;5039448;28;20040;-58
2021/01/01 13:19:02;;;;;;;7.63;6.82;;;5.50;91.70;;;;;;5035346;28;20021;-57
2021/01/01 13:21:29;;;;;;;7.28;6.57;;;5.60;91.60;;;;;;5039321;28;20449;-60
2021/01/01 13:23:54;;;;;;;7.82;6.60;;;5.60;91.60;;;;;;5036465;28;20040;-56
2021/01/01 13:26:21;;;;;;;7.18;6.47;;;5.50;91.60;;;;;;5021730;28;20013;-58
2021/01/01 13:28:46;;;;;;;6.80;6.10;;;5.60;91.60;;;;;;5035691;28;20026;-57
2021/01/01 13:31:12;;;;;;;8.40;7.47;;;5.60;91.70;;;;;;5046756;28;20074;-58
2021/01/01 13:33:37;;;;;;;7.03;6.32;;;5.60;91.70;;;;;;5009000;28;20107;-59
2021/01/01 13:36:03;;;;;;;7.97;6.82;;;5.60;91.70;;;;;;5020140;28;20034;-57
2021/01/01 13:38:29;;;;;;;7.85;7.05;;;5.60;91.90;;;;;;5021353;28;20033;-57
2021/01/01 13:40:54;;;;;;;7.90;7.10;;;5.60;91.60;;;;;;5025691;28;20031;-58
2021/01/01 13:43:20;;;;;;;7.90;6.50;;;5.60;91.90;;;;;;5044443;28;20043;-58
2021/01/01 13:45:45;;;;;;;7.40;6.70;;;5.60;91.60;;;;;;5045775;28;20055;-57
2021/01/01 13:48:11;;;;;;;6.97;6.25;;;5.60;91.70;;;;;;5038844;28;20531;-58
2021/01/01 13:50:36;;;;;;;7.28;6.40;;;5.60;91.60;;;;;;5025504;28;20070;-58